sensor_id;sensor_type;location;lat;lon;timestamp;pressure;altitude;pressure_sealevel;temperature;humidity
78890;BME280;68279;48.964;14.502;2023-04-25T00:01:21;96366.47;;;6.12;74.98
78890;BME280;68279;48.964;14.502;2023-04-25T00:03:49;96361.44;;;5.95;75.34
78890;BME280;68279;48.964;14.502;2023-04-25T00:06:15;96359.03;;;5.68;76.03
78890;BME280;68279;48.964;14.502;2023-04-25T00:08:42;96358.72;;;5.34;77.20
78890;BME280;68279;48.964;14.502;2023-04-25T00:11:07;96360.81;;;5.27;78.57
78890;BME280;68279;48.964;14.502;2023-04-25T00:13:33;96355.50;;;5.06;78.95
78890;BME280;68279;48.964;14.502;2023-04-25T00:15:59;96358.13;;;4.39;81.30
78890;BME280;68279;48.964;14.502;2023-04-25T00:18:25;96366.19;;;4.12;83.36
78890;BME280;68279;48.964;14.502;2023-04-25T00:20:54;96350.34;;;3.80;85.63
78890;BME280;68279;48.964;14.502;2023-04-25T00:23:20;96354.41;;;3.55;85.77
78890;BME280;68279;48.964;14.502;2023-04-25T00:25:49;96349.66;;;3.57;85.58
78890;BME280;68279;48.964;14.502;2023-04-25T00:28:15;96357.16;;;3.38;87.01
78890;BME280;68279;48.964;14.502;2023-04-25T00:30:42;96355.25;;;3.98;85.93
78890;BME280;68279;48.964;14.502;2023-04-25T00:33:08;96350.97;;;3.97;84.88
78890;BME280;68279;48.964;14.502;2023-04-25T00:35:34;96345.91;;;4.33;83.86
78890;BME280;68279;48.964;14.502;2023-04-25T00:38:00;96350.41;;;4.27;83.41
78890;BME280;68279;48.964;14.502;2023-04-25T00:40:26;96337.66;;;4.24;84.25
78890;BME280;68279;48.964;14.502;2023-04-25T00:42:52;96345.31;;;4.15;84.22
78890;BME280;68279;48.964;14.502;2023-04-25T00:45:18;96347.34;;;4.03;84.47
78890;BME280;68279;48.964;14.502;2023-04-25T00:47:45;96340.56;;;3.80;83.52
78890;BME280;68279;48.964;14.502;2023-04-25T00:50:11;96342.41;;;3.80;84.84
78890;BME280;68279;48.964;14.502;2023-04-25T00:52:42;96337.59;;;3.72;85.43
78890;BME280;68279;48.964;14.502;2023-04-25T00:55:10;96342.66;;;3.78;86.07
78890;BME280;68279;48.964;14.502;2023-04-25T00:57:36;96342.72;;;3.83;85.58
78890;BME280;68279;48.964;14.502;2023-04-25T01:00:03;96337.94;;;3.80;86.19
78890;BME280;68279;48.964;14.502;2023-04-25T01:02:32;96342.66;;;3.78;85.08
78890;BME280;68279;48.964;14.502;2023-04-25T01:04:58;96343.22;;;3.48;85.28
78890;BME280;68279;48.964;14.502;2023-04-25T01:07:23;96336.13;;;3.22;86.19
78890;BME280;68279;48.964;14.502;2023-04-25T01:09:51;96340.06;;;2.92;88.23
78890;BME280;68279;48.964;14.502;2023-04-25T01:12:18;96335.16;;;3.06;88.78
78890;BME280;68279;48.964;14.502;2023-04-25T01:14:44;96335.16;;;3.06;87.87
78890;BME280;68279;48.964;14.502;2023-04-25T01:17:10;96334.44;;;3.10;88.19
78890;BME280;68279;48.964;14.502;2023-04-25T01:19:36;96333.31;;;3.06;88.38
78890;BME280;68279;48.964;14.502;2023-04-25T01:22:02;96329.16;;;3.10;88.75
78890;BME280;68279;48.964;14.502;2023-04-25T01:24:27;96334.72;;;2.87;88.48
78890;BME280;68279;48.964;14.502;2023-04-25T01:26:54;96324.72;;;2.67;89.61
78890;BME280;68279;48.964;14.502;2023-04-25T01:29:22;96322.69;;;2.74;90.81
78890;BME280;68279;48.964;14.502;2023-04-25T01:31:48;96316.22;;;2.87;89.97
78890;BME280;68279;48.964;14.502;2023-04-25T01:34:14;96319.22;;;3.23;88.67
78890;BME280;68279;48.964;14.502;2023-04-25T01:36:40;96316.56;;;3.23;88.84
78890;BME280;68279;48.964;14.502;2023-04-25T01:39:06;96317.91;;;2.98;88.74
78890;BME280;68279;48.964;14.502;2023-04-25T01:41:33;96322.56;;;2.86;89.54
78890;BME280;68279;48.964;14.502;2023-04-25T01:44:00;96322.09;;;2.67;91.11
78890;BME280;68279;48.964;14.502;2023-04-25T01:46:25;96315.31;;;2.54;91.53
78890;BME280;68279;48.964;14.502;2023-04-25T01:48:51;96313.63;;;2.43;91.41
78890;BME280;68279;48.964;14.502;2023-04-25T01:51:17;96319.03;;;2.32;91.97
78890;BME280;68279;48.964;14.502;2023-04-25T01:53:43;96320.03;;;1.70;93.90
78890;BME280;68279;48.964;14.502;2023-04-25T01:56:08;96322.84;;;2.02;94.38
78890;BME280;68279;48.964;14.502;2023-04-25T01:58:34;96315.81;;;2.08;93.90
78890;BME280;68279;48.964;14.502;2023-04-25T02:01:00;96313.81;;;2.15;92.55
78890;BME280;68279;48.964;14.502;2023-04-25T02:03:25;96314.50;;;2.10;92.25
78890;BME280;68279;48.964;14.502;2023-04-25T02:05:51;96309.63;;;2.19;92.54
78890;BME280;68279;48.964;14.502;2023-04-25T02:08:17;96312.72;;;2.33;92.31
78890;BME280;68279;48.964;14.502;2023-04-25T02:10:43;96311.09;;;2.53;92.39
78890;BME280;68279;48.964;14.502;2023-04-25T02:13:09;96311.91;;;2.54;92.19
78890;BME280;68279;48.964;14.502;2023-04-25T02:15:35;96321.88;;;2.74;91.73
78890;BME280;68279;48.964;14.502;2023-04-25T02:18:00;96313.59;;;2.87;90.55
78890;BME280;68279;48.964;14.502;2023-04-25T02:20:28;96310.09;;;2.81;90.06
78890;BME280;68279;48.964;14.502;2023-04-25T02:22:55;96315.00;;;2.73;90.00
78890;BME280;68279;48.964;14.502;2023-04-25T02:25:21;96313.72;;;2.75;90.38
78890;BME280;68279;48.964;14.502;2023-04-25T02:27:47;96311.53;;;2.67;90.94
78890;BME280;68279;48.964;14.502;2023-04-25T02:30:13;96311.72;;;2.61;90.95
78890;BME280;68279;48.964;14.502;2023-04-25T02:32:39;96311.41;;;2.57;90.86
78890;BME280;68279;48.964;14.502;2023-04-25T02:35:06;96307.28;;;2.44;91.24
78890;BME280;68279;48.964;14.502;2023-04-25T02:37:36;96300.59;;;2.15;91.71
78890;BME280;68279;48.964;14.502;2023-04-25T02:40:02;96297.91;;;2.32;93.78
78890;BME280;68279;48.964;14.502;2023-04-25T02:42:29;96298.41;;;2.50;93.68
78890;BME280;68279;48.964;14.502;2023-04-25T02:44:55;96294.28;;;2.60;92.80
78890;BME280;68279;48.964;14.502;2023-04-25T02:47:21;96288.13;;;2.54;93.08
78890;BME280;68279;48.964;14.502;2023-04-25T02:49:46;96286.72;;;2.68;92.71
78890;BME280;68279;48.964;14.502;2023-04-25T02:52:12;96283.13;;;2.79;92.35
78890;BME280;68279;48.964;14.502;2023-04-25T02:54:39;96288.22;;;2.86;91.91
78890;BME280;68279;48.964;14.502;2023-04-25T02:57:06;96275.03;;;2.86;91.37
78890;BME280;68279;48.964;14.502;2023-04-25T02:59:31;96278.91;;;2.78;91.04
78890;BME280;68279;48.964;14.502;2023-04-25T03:01:57;96273.81;;;2.72;91.19
78890;BME280;68279;48.964;14.502;2023-04-25T03:04:22;96272.56;;;2.79;91.97
78890;BME280;68279;48.964;14.502;2023-04-25T03:06:50;96268.69;;;2.87;91.60
78890;BME280;68279;48.964;14.502;2023-04-25T03:09:15;96263.22;;;2.94;91.41
78890;BME280;68279;48.964;14.502;2023-04-25T03:11:41;96266.19;;;3.02;91.44
78890;BME280;68279;48.964;14.502;2023-04-25T03:14:07;96261.47;;;3.04;91.31
78890;BME280;68279;48.964;14.502;2023-04-25T03:16:33;96258.56;;;3.06;91.17
78890;BME280;68279;48.964;14.502;2023-04-25T03:18:59;96255.41;;;3.09;90.94
78890;BME280;68279;48.964;14.502;2023-04-25T03:21:25;96259.81;;;2.98;89.85
78890;BME280;68279;48.964;14.502;2023-04-25T03:23:52;96257.97;;;2.99;91.01
78890;BME280;68279;48.964;14.502;2023-04-25T03:26:17;96258.03;;;3.04;90.77
78890;BME280;68279;48.964;14.502;2023-04-25T03:28:43;96257.25;;;3.08;91.53
78890;BME280;68279;48.964;14.502;2023-04-25T03:31:09;96254.66;;;3.13;91.49
78890;BME280;68279;48.964;14.502;2023-04-25T03:33:34;96266.09;;;3.19;90.82
78890;BME280;68279;48.964;14.502;2023-04-25T03:36:00;96260.22;;;3.12;90.71
78890;BME280;68279;48.964;14.502;2023-04-25T03:38:26;96264.19;;;3.15;91.35
78890;BME280;68279;48.964;14.502;2023-04-25T03:40:51;96266.38;;;3.23;91.52
78890;BME280;68279;48.964;14.502;2023-04-25T03:43:17;96261.88;;;3.23;90.76
78890;BME280;68279;48.964;14.502;2023-04-25T03:45:43;96264.97;;;3.15;90.94
78890;BME280;68279;48.964;14.502;2023-04-25T03:48:09;96263.91;;;3.11;91.29
78890;BME280;68279;48.964;14.502;2023-04-25T03:50:35;96255.66;;;3.07;91.00
78890;BME280;68279;48.964;14.502;2023-04-25T03:53:07;96258.53;;;3.01;91.34
78890;BME280;68279;48.964;14.502;2023-04-25T03:55:33;96254.16;;;2.84;91.45
78890;BME280;68279;48.964;14.502;2023-04-25T03:57:59;96263.16;;;2.89;92.16
78890;BME280;68279;48.964;14.502;2023-04-25T04:00:25;96261.50;;;2.82;92.23
78890;BME280;68279;48.964;14.502;2023-04-25T04:02:50;96250.19;;;2.87;92.42
78890;BME280;68279;48.964;14.502;2023-04-25T04:05:16;96252.69;;;2.99;92.71
78890;BME280;68279;48.964;14.502;2023-04-25T04:07:42;96257.97;;;2.99;91.96
78890;BME280;68279;48.964;14.502;2023-04-25T04:10:11;96249.22;;;2.93;91.82
78890;BME280;68279;48.964;14.502;2023-04-25T04:12:37;96254.94;;;2.85;91.81
78890;BME280;68279;48.964;14.502;2023-04-25T04:15:04;96258.56;;;2.79;91.55
78890;BME280;68279;48.964;14.502;2023-04-25T04:17:31;96259.56;;;2.73;91.67
78890;BME280;68279;48.964;14.502;2023-04-25T04:19:57;96263.50;;;2.70;92.38
78890;BME280;68279;48.964;14.502;2023-04-25T04:22:23;96251.41;;;2.74;92.47
78890;BME280;68279;48.964;14.502;2023-04-25T04:24:49;96262.47;;;2.71;92.50
78890;BME280;68279;48.964;14.502;2023-04-25T04:27:17;96265.88;;;2.72;92.19
78890;BME280;68279;48.964;14.502;2023-04-25T04:29:43;96263.47;;;2.65;91.94
78890;BME280;68279;48.964;14.502;2023-04-25T04:32:09;96267.69;;;2.66;92.36
78890;BME280;68279;48.964;14.502;2023-04-25T04:34:34;96260.34;;;2.73;92.51
78890;BME280;68279;48.964;14.502;2023-04-25T04:37:01;96263.94;;;2.89;92.54
78890;BME280;68279;48.964;14.502;2023-04-25T04:39:26;96257.03;;;3.10;92.28
78890;BME280;68279;48.964;14.502;2023-04-25T04:41:52;96262.41;;;3.25;91.98
78890;BME280;68279;48.964;14.502;2023-04-25T04:44:18;96260.91;;;3.34;91.80
78890;BME280;68279;48.964;14.502;2023-04-25T04:46:45;96268.94;;;3.45;92.25
78890;BME280;68279;48.964;14.502;2023-04-25T04:49:12;96261.19;;;3.75;90.83
78890;BME280;68279;48.964;14.502;2023-04-25T04:51:39;96274.88;;;4.14;89.70
78890;BME280;68279;48.964;14.502;2023-04-25T04:54:09;96277.09;;;4.33;88.94
78890;BME280;68279;48.964;14.502;2023-04-25T04:56:35;96273.44;;;4.49;88.67
78890;BME280;68279;48.964;14.502;2023-04-25T04:59:01;96275.38;;;4.69;88.66
78890;BME280;68279;48.964;14.502;2023-04-25T05:01:28;96267.72;;;4.77;88.20
78890;BME280;68279;48.964;14.502;2023-04-25T05:03:55;96276.19;;;4.84;88.01
78890;BME280;68279;48.964;14.502;2023-04-25T05:06:26;96277.00;;;4.85;87.82
78890;BME280;68279;48.964;14.502;2023-04-25T05:08:52;96278.06;;;4.94;87.65
78890;BME280;68279;48.964;14.502;2023-04-25T05:11:18;96283.13;;;5.01;87.01
78890;BME280;68279;48.964;14.502;2023-04-25T05:13:44;96282.34;;;5.05;86.44
78890;BME280;68279;48.964;14.502;2023-04-25T05:16:11;96275.72;;;5.28;86.75
78890;BME280;68279;48.964;14.502;2023-04-25T05:18:37;96265.41;;;5.57;85.41
78890;BME280;68279;48.964;14.502;2023-04-25T05:21:03;96265.66;;;5.66;85.44
78890;BME280;68279;48.964;14.502;2023-04-25T05:23:28;96268.75;;;6.09;86.37
78890;BME280;68279;48.964;14.502;2023-04-25T05:25:55;96268.41;;;6.46;84.34
78890;BME280;68279;48.964;14.502;2023-04-25T05:28:22;96268.28;;;6.66;83.45
78890;BME280;68279;48.964;14.502;2023-04-25T05:30:48;96271.38;;;6.84;81.51
78890;BME280;68279;48.964;14.502;2023-04-25T05:33:13;96272.81;;;6.66;81.49
78890;BME280;68279;48.964;14.502;2023-04-25T05:35:39;96270.72;;;6.58;81.11
78890;BME280;68279;48.964;14.502;2023-04-25T05:38:04;96270.44;;;6.64;81.45
78890;BME280;68279;48.964;14.502;2023-04-25T05:40:30;96271.84;;;6.96;81.33
78890;BME280;68279;48.964;14.502;2023-04-25T05:42:55;96267.44;;;7.20;81.55
78890;BME280;68279;48.964;14.502;2023-04-25T05:45:21;96267.00;;;7.03;82.25
78890;BME280;68279;48.964;14.502;2023-04-25T05:47:47;96271.09;;;6.90;82.48
78890;BME280;68279;48.964;14.502;2023-04-25T05:50:12;96262.78;;;6.97;80.32
78890;BME280;68279;48.964;14.502;2023-04-25T05:52:38;96265.56;;;7.21;79.28
78890;BME280;68279;48.964;14.502;2023-04-25T05:55:04;96255.81;;;7.45;77.35
78890;BME280;68279;48.964;14.502;2023-04-25T05:57:30;96256.28;;;7.81;75.47
78890;BME280;68279;48.964;14.502;2023-04-25T05:59:55;96257.16;;;8.24;79.42
78890;BME280;68279;48.964;14.502;2023-04-25T06:02:21;96261.44;;;8.49;76.25
78890;BME280;68279;48.964;14.502;2023-04-25T06:04:49;96245.66;;;8.29;75.51
78890;BME280;68279;48.964;14.502;2023-04-25T06:07:15;96249.50;;;7.94;73.65
78890;BME280;68279;48.964;14.502;2023-04-25T06:09:40;96258.25;;;8.47;74.05
78890;BME280;68279;48.964;14.502;2023-04-25T06:12:06;96259.41;;;8.41;72.63
78890;BME280;68279;48.964;14.502;2023-04-25T06:14:35;96264.59;;;8.75;74.62
78890;BME280;68279;48.964;14.502;2023-04-25T06:17:00;96259.16;;;8.38;74.17
78890;BME280;68279;48.964;14.502;2023-04-25T06:19:32;96261.56;;;8.39;77.75
78890;BME280;68279;48.964;14.502;2023-04-25T06:21:58;96257.97;;;8.25;76.06
78890;BME280;68279;48.964;14.502;2023-04-25T06:24:24;96257.97;;;8.25;72.94
78890;BME280;68279;48.964;14.502;2023-04-25T06:26:50;96268.09;;;8.71;72.01
78890;BME280;68279;48.964;14.502;2023-04-25T06:29:15;96262.38;;;8.40;71.09
78890;BME280;68279;48.964;14.502;2023-04-25T06:31:41;96256.94;;;8.21;71.92
78890;BME280;68279;48.964;14.502;2023-04-25T06:34:07;96256.25;;;8.34;72.85
78890;BME280;68279;48.964;14.502;2023-04-25T06:36:32;96253.66;;;8.53;72.64
78890;BME280;68279;48.964;14.502;2023-04-25T06:38:58;96251.03;;;8.48;70.96
78890;BME280;68279;48.964;14.502;2023-04-25T06:41:23;96252.09;;;9.46;67.45
78890;BME280;68279;48.964;14.502;2023-04-25T06:43:49;96248.59;;;9.78;64.82
78890;BME280;68279;48.964;14.502;2023-04-25T06:46:15;96248.25;;;9.99;66.81
78890;BME280;68279;48.964;14.502;2023-04-25T06:48:40;96248.56;;;10.25;68.92
78890;BME280;68279;48.964;14.502;2023-04-25T06:51:06;96252.59;;;9.29;68.56
78890;BME280;68279;48.964;14.502;2023-04-25T06:53:31;96253.72;;;9.42;68.46
78890;BME280;68279;48.964;14.502;2023-04-25T06:55:57;96256.44;;;8.86;68.42
78890;BME280;68279;48.964;14.502;2023-04-25T06:58:23;96253.03;;;9.18;68.98
78890;BME280;68279;48.964;14.502;2023-04-25T07:00:48;96252.03;;;8.76;66.79
78890;BME280;68279;48.964;14.502;2023-04-25T07:03:14;96245.88;;;8.57;67.76
78890;BME280;68279;48.964;14.502;2023-04-25T07:05:40;96241.09;;;8.77;69.36
78890;BME280;68279;48.964;14.502;2023-04-25T07:08:05;96235.28;;;9.27;68.57
78890;BME280;68279;48.964;14.502;2023-04-25T07:10:31;96231.69;;;9.18;69.03
78890;BME280;68279;48.964;14.502;2023-04-25T07:12:57;96233.94;;;9.29;68.48
78890;BME280;68279;48.964;14.502;2023-04-25T07:15:23;96227.50;;;9.30;68.14
78890;BME280;68279;48.964;14.502;2023-04-25T07:17:49;96222.59;;;9.38;68.37
78890;BME280;68279;48.964;14.502;2023-04-25T07:20:14;96209.53;;;9.96;66.52
78890;BME280;68279;48.964;14.502;2023-04-25T07:22:41;96218.38;;;9.50;66.91
78890;BME280;68279;48.964;14.502;2023-04-25T07:25:07;96220.06;;;9.46;67.76
78890;BME280;68279;48.964;14.502;2023-04-25T07:27:33;96221.19;;;9.07;68.32
78890;BME280;68279;48.964;14.502;2023-04-25T07:30:00;96225.22;;;9.05;65.29
78890;BME280;68279;48.964;14.502;2023-04-25T07:32:26;96222.88;;;8.85;68.87
78890;BME280;68279;48.964;14.502;2023-04-25T07:34:52;96223.06;;;8.88;68.00
78890;BME280;68279;48.964;14.502;2023-04-25T07:37:17;96228.34;;;8.93;71.79
78890;BME280;68279;48.964;14.502;2023-04-25T07:39:44;96229.47;;;9.06;68.00
78890;BME280;68279;48.964;14.502;2023-04-25T07:42:12;96226.44;;;9.13;67.19
78890;BME280;68279;48.964;14.502;2023-04-25T07:44:37;96213.28;;;9.68;67.46
78890;BME280;68279;48.964;14.502;2023-04-25T07:47:08;96212.16;;;10.42;66.01
78890;BME280;68279;48.964;14.502;2023-04-25T07:49:34;96224.06;;;9.44;67.81
78890;BME280;68279;48.964;14.502;2023-04-25T07:52:01;96217.84;;;9.94;64.05
78890;BME280;68279;48.964;14.502;2023-04-25T07:54:29;96211.63;;;9.99;64.04
78890;BME280;68279;48.964;14.502;2023-04-25T07:56:55;96214.75;;;10.34;60.71
78890;BME280;68279;48.964;14.502;2023-04-25T07:59:27;96209.25;;;9.84;63.27
78890;BME280;68279;48.964;14.502;2023-04-25T08:01:55;96215.63;;;9.69;61.37
78890;BME280;68279;48.964;14.502;2023-04-25T08:04:22;96214.06;;;9.35;61.94
78890;BME280;68279;48.964;14.502;2023-04-25T08:06:49;96209.09;;;9.48;65.48
78890;BME280;68279;48.964;14.502;2023-04-25T08:09:15;96209.88;;;10.36;62.36
78890;BME280;68279;48.964;14.502;2023-04-25T08:11:41;96210.06;;;10.53;60.66
78890;BME280;68279;48.964;14.502;2023-04-25T08:14:07;96207.59;;;11.60;58.02
78890;BME280;68279;48.964;14.502;2023-04-25T08:16:32;96208.41;;;12.31;53.92
78890;BME280;68279;48.964;14.502;2023-04-25T08:18:59;96215.06;;;12.42;52.25
78890;BME280;68279;48.964;14.502;2023-04-25T08:21:25;96199.78;;;11.95;56.76
78890;BME280;68279;48.964;14.502;2023-04-25T08:23:52;96199.19;;;11.30;56.50
78890;BME280;68279;48.964;14.502;2023-04-25T08:26:17;96202.13;;;11.96;55.46
78890;BME280;68279;48.964;14.502;2023-04-25T08:28:43;96198.13;;;12.25;55.92
78890;BME280;68279;48.964;14.502;2023-04-25T08:31:08;96197.16;;;11.27;57.75
78890;BME280;68279;48.964;14.502;2023-04-25T08:33:34;96205.28;;;11.98;54.53
78890;BME280;68279;48.964;14.502;2023-04-25T08:35:59;96208.50;;;10.88;58.26
78890;BME280;68279;48.964;14.502;2023-04-25T08:38:25;96207.41;;;10.39;59.43
78890;BME280;68279;48.964;14.502;2023-04-25T08:40:51;96208.59;;;10.83;57.94
78890;BME280;68279;48.964;14.502;2023-04-25T08:43:19;96210.00;;;10.81;61.62
78890;BME280;68279;48.964;14.502;2023-04-25T08:45:45;96208.28;;;11.21;57.01
78890;BME280;68279;48.964;14.502;2023-04-25T08:48:16;96212.00;;;11.33;56.46
78890;BME280;68279;48.964;14.502;2023-04-25T08:50:50;96217.09;;;10.49;59.46
78890;BME280;68279;48.964;14.502;2023-04-25T08:53:39;96220.63;;;10.58;57.40
78890;BME280;68279;48.964;14.502;2023-04-25T08:56:08;96222.09;;;11.37;57.17
78890;BME280;68279;48.964;14.502;2023-04-25T08:58:35;96222.13;;;11.00;54.86
78890;BME280;68279;48.964;14.502;2023-04-25T09:01:03;96222.16;;;10.23;57.29
78890;BME280;68279;48.964;14.502;2023-04-25T09:03:28;96217.44;;;9.87;60.95
78890;BME280;68279;48.964;14.502;2023-04-25T09:05:55;96203.09;;;9.97;58.65
78890;BME280;68279;48.964;14.502;2023-04-25T09:08:20;96202.84;;;10.40;58.36
78890;BME280;68279;48.964;14.502;2023-04-25T09:10:46;96198.31;;;10.76;54.33
78890;BME280;68279;48.964;14.502;2023-04-25T09:13:14;96195.69;;;11.44;53.91
78890;BME280;68279;48.964;14.502;2023-04-25T09:15:53;96202.47;;;12.60;49.49
78890;BME280;68279;48.964;14.502;2023-04-25T09:20:51;96202.66;;;12.64;51.28
78890;BME280;68279;48.964;14.502;2023-04-25T09:23:18;96195.25;;;12.04;48.42
78890;BME280;68279;48.964;14.502;2023-04-25T09:25:47;96202.66;;;12.64;50.37
78890;BME280;68279;48.964;14.502;2023-04-25T09:28:13;96204.81;;;11.96;51.29
78890;BME280;68279;48.964;14.502;2023-04-25T09:30:39;96204.53;;;12.55;49.80
78890;BME280;68279;48.964;14.502;2023-04-25T09:33:06;96196.00;;;11.96;50.45
78890;BME280;68279;48.964;14.502;2023-04-25T09:35:43;96200.16;;;12.76;49.67
78890;BME280;68279;48.964;14.502;2023-04-25T09:40:39;96203.28;;;12.61;51.56
78890;BME280;68279;48.964;14.502;2023-04-25T09:43:22;96198.09;;;13.42;57.04
78890;BME280;68279;48.964;14.502;2023-04-25T09:45:48;96196.47;;;14.82;45.87
78890;BME280;68279;48.964;14.502;2023-04-25T09:48:21;96198.53;;;12.49;53.05
78890;BME280;68279;48.964;14.502;2023-04-25T09:51:09;96202.75;;;12.33;52.07
78890;BME280;68279;48.964;14.502;2023-04-25T09:53:37;96194.41;;;11.41;55.87
78890;BME280;68279;48.964;14.502;2023-04-25T09:56:05;96196.38;;;11.04;55.64
78890;BME280;68279;48.964;14.502;2023-04-25T09:58:32;96210.94;;;10.48;57.06
78890;BME280;68279;48.964;14.502;2023-04-25T10:01:00;96207.31;;;10.31;57.24
78890;BME280;68279;48.964;14.502;2023-04-25T10:03:26;96212.91;;;10.02;62.77
78890;BME280;68279;48.964;14.502;2023-04-25T10:05:55;96209.97;;;10.17;65.03
78890;BME280;68279;48.964;14.502;2023-04-25T10:08:22;96231.97;;;9.35;67.42
78890;BME280;68279;48.964;14.502;2023-04-25T10:10:52;96221.03;;;8.80;67.83
78890;BME280;68279;48.964;14.502;2023-04-25T10:13:18;96219.91;;;8.86;68.88
78890;BME280;68279;48.964;14.502;2023-04-25T10:15:43;96210.97;;;9.47;66.59
78890;BME280;68279;48.964;14.502;2023-04-25T10:18:10;96213.31;;;10.50;64.00
78890;BME280;68279;48.964;14.502;2023-04-25T10:20:36;96211.91;;;10.66;62.78
78890;BME280;68279;48.964;14.502;2023-04-25T10:23:12;96209.72;;;9.72;65.52
78890;BME280;68279;48.964;14.502;2023-04-25T10:25:39;96222.81;;;11.06;63.06
78890;BME280;68279;48.964;14.502;2023-04-25T10:28:05;96207.50;;;11.96;60.89
78890;BME280;68279;48.964;14.502;2023-04-25T10:30:31;96216.91;;;12.25;57.14
78890;BME280;68279;48.964;14.502;2023-04-25T10:32:58;96204.78;;;14.00;57.71
78890;BME280;68279;48.964;14.502;2023-04-25T10:35:26;96216.41;;;13.57;58.37
78890;BME280;68279;48.964;14.502;2023-04-25T10:38:24;96210.88;;;16.06;51.52
78890;BME280;68279;48.964;14.502;2023-04-25T10:41:09;96203.25;;;16.08;51.39
78890;BME280;68279;48.964;14.502;2023-04-25T10:43:43;96207.13;;;15.53;49.73
78890;BME280;68279;48.964;14.502;2023-04-25T10:46:22;96200.69;;;15.12;48.76
78890;BME280;68279;48.964;14.502;2023-04-25T10:49:07;96193.13;;;13.87;54.92
78890;BME280;68279;48.964;14.502;2023-04-25T10:51:34;96185.34;;;15.25;51.63
78890;BME280;68279;48.964;14.502;2023-04-25T10:54:05;96189.25;;;12.07;55.84
78890;BME280;68279;48.964;14.502;2023-04-25T11:01:43;96195.69;;;10.49;64.75
78890;BME280;68279;48.964;14.502;2023-04-25T11:04:26;96187.81;;;11.02;61.12
78890;BME280;68279;48.964;14.502;2023-04-25T11:09:28;96185.44;;;11.68;60.14
78890;BME280;68279;48.964;14.502;2023-04-25T11:11:57;96185.72;;;10.77;61.36
78890;BME280;68279;48.964;14.502;2023-04-25T11:14:24;96194.13;;;10.20;63.46
78890;BME280;68279;48.964;14.502;2023-04-25T11:16:55;96193.22;;;10.53;65.35
78890;BME280;68279;48.964;14.502;2023-04-25T11:19:21;96193.97;;;11.48;61.68
78890;BME280;68279;48.964;14.502;2023-04-25T11:21:47;96196.44;;;11.13;62.45
78890;BME280;68279;48.964;14.502;2023-04-25T11:24:13;96203.09;;;12.40;61.94
78890;BME280;68279;48.964;14.502;2023-04-25T11:26:41;96196.22;;;12.82;59.46
78890;BME280;68279;48.964;14.502;2023-04-25T11:29:07;96190.47;;;12.49;61.19
78890;BME280;68279;48.964;14.502;2023-04-25T11:31:32;96182.25;;;12.45;59.71
78890;BME280;68279;48.964;14.502;2023-04-25T11:33:59;96183.41;;;12.05;60.44
78890;BME280;68279;48.964;14.502;2023-04-25T11:36:26;96207.78;;;11.19;63.82
78890;BME280;68279;48.964;14.502;2023-04-25T11:38:53;96229.59;;;9.33;70.21
78890;BME280;68279;48.964;14.502;2023-04-25T11:41:19;96218.69;;;9.62;70.63
78890;BME280;68279;48.964;14.502;2023-04-25T11:43:48;96229.16;;;9.26;71.18
78890;BME280;68279;48.964;14.502;2023-04-25T11:46:14;96245.19;;;9.07;73.94
78890;BME280;68279;48.964;14.502;2023-04-25T11:48:41;96241.22;;;9.05;75.71
78890;BME280;68279;48.964;14.502;2023-04-25T11:51:08;96241.09;;;8.77;77.51
78890;BME280;68279;48.964;14.502;2023-04-25T11:53:33;96244.91;;;8.90;77.24
78890;BME280;68279;48.964;14.502;2023-04-25T11:55:59;96253.16;;;8.51;78.02
78890;BME280;68279;48.964;14.502;2023-04-25T11:58:25;96252.50;;;8.40;77.10
78890;BME280;68279;48.964;14.502;2023-04-25T12:00:51;96265.06;;;9.34;74.50
78890;BME280;68279;48.964;14.502;2023-04-25T12:03:19;96253.69;;;8.72;68.69
78890;BME280;68279;48.964;14.502;2023-04-25T12:05:45;96264.75;;;8.41;68.19
78890;BME280;68279;48.964;14.502;2023-04-25T12:10:38;96270.72;;;8.52;67.53
78890;BME280;68279;48.964;14.502;2023-04-25T12:13:25;96276.41;;;8.45;71.30
78890;BME280;68279;48.964;14.502;2023-04-25T12:15:53;96278.91;;;8.08;72.59
78890;BME280;68279;48.964;14.502;2023-04-25T12:18:20;96262.00;;;7.70;74.79
78890;BME280;68279;48.964;14.502;2023-04-25T12:20:47;96263.19;;;7.53;77.81
78890;BME280;68279;48.964;14.502;2023-04-25T12:23:13;96265.97;;;7.72;78.17
78890;BME280;68279;48.964;14.502;2023-04-25T12:25:42;96262.13;;;8.36;75.17
78890;BME280;68279;48.964;14.502;2023-04-25T12:30:57;96253.84;;;8.14;76.57
78890;BME280;68279;48.964;14.502;2023-04-25T12:33:24;96249.88;;;8.78;71.96
78890;BME280;68279;48.964;14.502;2023-04-25T12:35:50;96251.84;;;9.75;72.50
78890;BME280;68279;48.964;14.502;2023-04-25T12:38:28;96266.44;;;11.74;70.48
78890;BME280;68279;48.964;14.502;2023-04-25T12:40:56;96265.19;;;10.76;63.98
78890;BME280;68279;48.964;14.502;2023-04-25T12:43:21;96264.91;;;11.14;65.03
78890;BME280;68279;48.964;14.502;2023-04-25T12:45:48;96268.06;;;12.06;62.82
78890;BME280;68279;48.964;14.502;2023-04-25T12:48:17;96270.50;;;11.26;62.55
78890;BME280;68279;48.964;14.502;2023-04-25T12:50:43;96255.56;;;11.25;64.11
78890;BME280;68279;48.964;14.502;2023-04-25T12:53:09;96268.69;;;11.35;62.68
78890;BME280;68279;48.964;14.502;2023-04-25T12:55:36;96278.16;;;10.42;63.39
78890;BME280;68279;48.964;14.502;2023-04-25T12:58:01;96269.44;;;10.09;63.65
78890;BME280;68279;48.964;14.502;2023-04-25T13:00:29;96275.22;;;9.83;64.94
78890;BME280;68279;48.964;14.502;2023-04-25T13:02:54;96297.97;;;9.81;64.15
78890;BME280;68279;48.964;14.502;2023-04-25T13:05:20;96281.03;;;10.18;63.77
78890;BME280;68279;48.964;14.502;2023-04-25T13:07:46;96282.09;;;9.71;64.59
78890;BME280;68279;48.964;14.502;2023-04-25T13:10:14;96284.25;;;10.01;63.80
78890;BME280;68279;48.964;14.502;2023-04-25T13:12:39;96290.38;;;10.02;66.00
78890;BME280;68279;48.964;14.502;2023-04-25T13:15:05;96288.78;;;10.47;63.59